createdAt,value
2018-01-31T01:52:20.600Z,1.12
2018-01-31T01:52:32.620Z,2.79
2018-01-31T01:53:32.705Z,2.81
2018-01-31T01:54:32.595Z,2.83
2018-01-31T01:55:32.623Z,2.83
2018-01-31T01:56:32.680Z,2.85
2018-01-31T01:57:32.685Z,2.85
2018-01-31T01:58:32.712Z,2.90
2018-01-31T01:59:32.627Z,2.92
2018-01-31T02:00:32.654Z,2.96
2018-01-31T02:01:32.653Z,2.98
2018-01-31T02:02:32.723Z,3.03
2018-01-31T02:03:32.652Z,3.03
2018-01-31T02:04:32.722Z,3.06
2018-01-31T02:05:32.688Z,3.09
2018-01-31T02:06:32.723Z,3.12
2018-01-31T02:07:32.656Z,3.16
2018-01-31T02:08:32.722Z,3.17
2018-01-31T02:09:32.724Z,3.17
2018-01-31T02:10:32.723Z,3.20
2018-01-31T02:11:32.625Z,3.17
2018-01-31T02:12:32.624Z,3.20
2018-01-31T02:13:32.671Z,3.20
2018-01-31T02:14:32.716Z,3.20
2018-01-31T02:15:32.695Z,3.22
2018-01-31T02:16:32.631Z,3.24
2018-01-31T02:17:32.661Z,3.26
2018-01-31T02:18:32.713Z,3.28
2018-01-31T02:19:32.633Z,3.31
2018-01-31T02:20:32.639Z,3.32
2018-01-31T02:21:32.715Z,3.36
2018-01-31T02:22:32.664Z,3.37
2018-01-31T02:23:32.603Z,3.39
2018-01-31T02:24:32.589Z,3.39
2018-01-31T02:25:32.643Z,3.40
2018-01-31T02:26:32.692Z,3.40
2018-01-31T02:27:32.603Z,3.40
2018-01-31T02:28:32.692Z,3.43
2018-01-31T02:29:32.662Z,3.44
2018-01-31T02:30:32.670Z,3.46
2018-01-31T02:31:32.677Z,3.44
2018-01-31T02:32:32.738Z,3.43
2018-01-31T02:33:32.677Z,3.43
2018-01-31T02:34:32.737Z,3.42
2018-01-31T02:35:32.767Z,3.39
2018-01-31T02:36:32.676Z,3.40
2018-01-31T02:37:32.741Z,3.40
2018-01-31T02:38:32.679Z,3.39
2018-01-31T02:39:32.830Z,3.39
2018-01-31T02:40:32.712Z,3.36
2018-01-31T02:41:32.695Z,3.37
2018-01-31T02:42:32.738Z,3.36
2018-01-31T02:43:32.665Z,3.37
2018-01-31T02:44:32.753Z,3.39
2018-01-31T02:45:32.654Z,3.37
2018-01-31T02:46:32.656Z,3.40
2018-01-31T02:47:32.724Z,3.42
2018-01-31T02:48:32.742Z,3.42
2018-01-31T02:49:32.716Z,3.42
2018-01-31T02:50:32.679Z,3.44
2018-01-31T02:51:32.748Z,3.46
2018-01-31T02:52:32.748Z,3.48
2018-01-31T02:53:32.754Z,3.48
2018-01-31T02:54:32.685Z,3.48
2018-01-31T02:55:32.687Z,3.48
2018-01-31T02:56:32.754Z,3.47
2018-01-31T02:57:32.687Z,3.48
2018-01-31T02:58:32.760Z,3.50
2018-01-31T02:59:32.692Z,3.50
2018-01-31T03:00:32.654Z,3.53
2018-01-31T03:01:32.643Z,3.54
2018-01-31T03:02:32.665Z,3.55
2018-01-31T03:03:32.704Z,3.57
2018-01-31T03:04:32.682Z,3.58
2018-01-31T03:05:32.649Z,3.57
2018-01-31T03:06:32.622Z,3.58
2018-01-31T03:07:32.716Z,3.59
2018-01-31T03:08:32.704Z,3.61
2018-01-31T03:09:32.742Z,3.62
2018-01-31T03:10:32.711Z,3.61
2018-01-31T03:11:32.750Z,3.59
2018-01-31T03:12:32.760Z,3.62
2018-01-31T03:13:32.675Z,3.62
2018-01-31T03:14:32.670Z,3.62
2018-01-31T03:15:32.669Z,3.64
2018-01-31T03:16:32.648Z,3.66
2018-01-31T03:17:32.635Z,3.68
2018-01-31T03:18:32.630Z,3.69
2018-01-31T03:19:32.714Z,3.77
2018-01-31T03:20:32.766Z,3.83
2018-01-31T03:21:32.702Z,3.89
2018-01-31T03:22:32.709Z,3.97
2018-01-31T03:23:32.767Z,4.04
2018-01-31T03:24:32.666Z,4.12
2018-01-31T03:25:32.775Z,4.17
2018-01-31T03:26:32.775Z,4.24
2018-01-31T03:27:32.802Z,4.30
2018-01-31T03:28:32.707Z,4.35
2018-01-31T03:29:32.797Z,4.37
2018-01-31T03:30:32.675Z,4.39
2018-01-31T03:31:32.672Z,4.40
2018-01-31T03:32:32.668Z,4.41
2018-01-31T03:33:32.665Z,4.40
2018-01-31T03:34:32.642Z,4.37
2018-01-31T03:35:32.706Z,4.36
2018-01-31T03:36:32.765Z,4.33
2018-01-31T03:37:32.743Z,4.33
2018-01-31T03:38:32.651Z,4.32
2018-01-31T03:39:32.730Z,4.29
2018-01-31T03:40:32.741Z,4.29
2018-01-31T03:41:32.674Z,4.28
2018-01-31T03:42:32.741Z,4.29
2018-01-31T03:43:32.740Z,4.26
2018-01-31T03:44:32.732Z,4.25
2018-01-31T03:45:32.743Z,4.28
2018-01-31T03:46:32.738Z,4.25
2018-01-31T03:47:32.717Z,4.24
2018-01-31T03:48:32.733Z,4.24
2018-01-31T03:49:32.740Z,4.22
2018-01-31T03:50:32.789Z,4.22
2018-01-31T03:51:32.722Z,4.24
2018-01-31T03:52:32.805Z,4.24
2018-01-31T03:53:32.725Z,4.25
2018-01-31T03:54:32.792Z,4.28
2018-01-31T03:55:32.726Z,4.28
2018-01-31T03:56:32.791Z,4.30
2018-01-31T03:57:32.790Z,4.36
2018-01-31T03:58:32.722Z,4.37
2018-01-31T03:59:32.723Z,4.41
2018-01-31T04:00:32.739Z,4.44
2018-01-31T04:01:32.745Z,4.46
2018-01-31T04:02:32.697Z,4.46
2018-01-31T04:03:32.743Z,4.48
2018-01-31T04:04:32.749Z,4.50
2018-01-31T04:05:32.652Z,4.51
2018-01-31T04:06:32.745Z,4.52
2018-01-31T04:07:32.652Z,4.51
2018-01-31T04:08:32.744Z,4.51
2018-01-31T04:09:32.657Z,4.51
2018-01-31T04:10:32.798Z,4.52
2018-01-31T04:11:32.735Z,4.59
2018-01-31T04:12:32.809Z,4.57
2018-01-31T04:13:32.735Z,4.62
2018-01-31T04:14:32.801Z,4.63
2018-01-31T04:15:32.795Z,4.63
2018-01-31T04:16:32.801Z,4.67
2018-01-31T04:17:32.806Z,4.69
2018-01-31T04:18:32.740Z,4.73
2018-01-31T04:19:32.803Z,4.74
2018-01-31T04:20:32.790Z,4.75
2018-01-31T04:21:32.702Z,4.77
2018-01-31T04:22:32.735Z,4.80
2018-01-31T04:23:32.793Z,4.82
2018-01-31T04:24:32.794Z,4.82
2018-01-31T04:25:32.676Z,4.82
2018-01-31T04:26:32.705Z,4.82
2018-01-31T04:27:32.705Z,4.82
2018-01-31T04:28:32.734Z,4.81
2018-01-31T04:29:32.702Z,4.80
2018-01-31T04:30:32.813Z,4.82
2018-01-31T04:31:32.750Z,4.81
2018-01-31T04:32:32.837Z,4.82
2018-01-31T04:33:32.821Z,4.82
2018-01-31T04:34:32.750Z,4.84
2018-01-31T04:35:32.749Z,4.89
2018-01-31T04:36:32.751Z,4.91
2018-01-31T04:37:32.747Z,4.95
2018-01-31T04:38:32.751Z,4.99
2018-01-31T04:39:32.839Z,5.03
2018-01-31T04:40:32.815Z,5.10
2018-01-31T04:41:32.820Z,5.18
2018-01-31T04:42:32.750Z,5.26
2018-01-31T04:43:32.752Z,5.29
2018-01-31T04:44:32.706Z,5.33
2018-01-31T04:45:32.831Z,5.33
2018-01-31T04:46:32.794Z,5.34
2018-01-31T04:47:32.753Z,5.35
2018-01-31T04:48:32.820Z,5.41
2018-01-31T04:49:32.823Z,5.52
2018-01-31T04:50:32.778Z,5.53
2018-01-31T04:51:32.756Z,5.57
2018-01-31T04:52:32.683Z,5.60
2018-01-31T04:53:32.808Z,5.62
2018-01-31T04:54:32.687Z,5.66
2018-01-31T04:55:32.778Z,5.68
2018-01-31T04:56:32.809Z,5.74
2018-01-31T04:57:32.698Z,5.78
2018-01-31T04:58:32.773Z,5.77
2018-01-31T04:59:32.691Z,5.77
2018-01-31T05:00:32.755Z,5.77
2018-01-31T05:01:32.826Z,5.77
2018-01-31T05:02:32.761Z,5.81
2018-01-31T05:03:32.831Z,5.82
2018-01-31T05:04:32.757Z,5.82
2018-01-31T05:05:32.829Z,5.81
2018-01-31T05:06:32.766Z,5.82
2018-01-31T05:07:32.831Z,5.81
2018-01-31T05:08:32.764Z,5.79
2018-01-31T05:09:32.839Z,5.78
2018-01-31T05:10:32.761Z,5.78
2018-01-31T05:11:32.834Z,5.77
2018-01-31T05:12:32.840Z,5.78
2018-01-31T05:13:32.770Z,5.79
2018-01-31T05:14:32.835Z,5.79
2018-01-31T05:15:32.772Z,5.79
2018-01-31T05:16:32.837Z,5.78
2018-01-31T05:17:32.775Z,5.78
2018-01-31T05:18:32.838Z,5.77
2018-01-31T05:19:32.775Z,5.78
2018-01-31T05:20:32.844Z,5.82
2018-01-31T05:21:32.777Z,5.82
2018-01-31T05:22:32.846Z,5.86
2018-01-31T05:23:32.842Z,5.88
2018-01-31T05:24:32.780Z,5.88
2018-01-31T05:25:32.848Z,5.88
2018-01-31T05:26:32.806Z,5.89
2018-01-31T05:27:32.782Z,5.91
2018-01-31T05:28:32.842Z,5.91
2018-01-31T05:29:32.781Z,5.89
2018-01-31T05:30:32.717Z,5.91
2018-01-31T05:31:32.742Z,5.95
2018-01-31T05:32:32.794Z,5.95
2018-01-31T05:33:32.737Z,5.96
2018-01-31T05:34:32.796Z,5.97
2018-01-31T05:35:32.795Z,6.02
2018-01-31T05:36:32.712Z,6.06
2018-01-31T05:37:32.815Z,6.09
2018-01-31T05:38:32.714Z,6.11
2018-01-31T05:39:32.738Z,6.12
2018-01-31T05:40:32.740Z,6.16
2018-01-31T05:41:32.758Z,6.22
2018-01-31T05:42:32.799Z,6.25
2018-01-31T05:43:32.837Z,6.29
2018-01-31T05:44:32.822Z,6.30
2018-01-31T05:45:32.842Z,6.31
2018-01-31T05:46:32.788Z,6.36
2018-01-31T05:47:32.821Z,6.37
2018-01-31T05:48:32.825Z,6.37
2018-01-31T05:49:32.742Z,6.38
2018-01-31T05:50:32.806Z,6.40
2018-01-31T05:51:32.857Z,6.43
2018-01-31T05:52:32.793Z,6.43
2018-01-31T05:53:32.810Z,6.44
2018-01-31T05:54:32.744Z,6.45
2018-01-31T05:55:32.765Z,6.45
2018-01-31T05:56:32.758Z,6.44
2018-01-31T05:57:32.795Z,6.44
2018-01-31T05:58:32.830Z,6.43
2018-01-31T05:59:32.853Z,6.45
2018-01-31T06:00:32.866Z,6.51
2018-01-31T06:01:32.864Z,6.49
2018-01-31T06:02:32.764Z,6.55
2018-01-31T06:03:32.748Z,6.56
2018-01-31T06:04:32.836Z,6.56
2018-01-31T06:05:32.769Z,6.59
2018-01-31T06:06:32.816Z,6.64
2018-01-31T06:07:32.855Z,6.66
2018-01-31T06:08:32.753Z,6.66
2018-01-31T06:09:32.801Z,6.68
2018-01-31T06:10:32.770Z,6.68
2018-01-31T06:11:32.860Z,6.68
2018-01-31T06:12:32.777Z,6.70
2018-01-31T06:13:32.802Z,6.70
2018-01-31T06:14:32.802Z,6.68
2018-01-31T06:15:32.818Z,6.70
2018-01-31T06:16:32.864Z,6.72
2018-01-31T06:17:32.762Z,6.75
2018-01-31T06:18:32.821Z,6.77
2018-01-31T06:19:32.874Z,6.81
2018-01-31T06:20:32.883Z,6.86
2018-01-31T06:21:32.806Z,6.89
2018-01-31T06:22:32.876Z,6.89
2018-01-31T06:23:32.807Z,6.89
2018-01-31T06:24:32.876Z,6.93
2018-01-31T06:25:32.811Z,6.97
2018-01-31T06:26:32.878Z,6.98
2018-01-31T06:27:32.811Z,7.00
2018-01-31T06:28:32.879Z,6.98
2018-01-31T06:29:32.808Z,6.95
2018-01-31T06:30:32.758Z,6.93
2018-01-31T06:31:32.751Z,6.91
2018-01-31T06:32:32.701Z,6.93
2018-01-31T06:33:32.821Z,6.93
2018-01-31T06:34:32.756Z,6.91
2018-01-31T06:35:32.808Z,6.91
2018-01-31T06:36:32.817Z,6.89
2018-01-31T06:37:32.708Z,6.89
2018-01-31T06:38:32.702Z,6.86
2018-01-31T06:39:32.769Z,6.67
2018-01-31T06:40:32.794Z,6.67
2018-01-31T06:41:32.888Z,6.67
2018-01-31T06:42:32.826Z,6.67
2018-01-31T06:43:32.887Z,6.67
2018-01-31T06:44:32.821Z,6.67
2018-01-31T06:45:32.897Z,6.67
2018-01-31T06:46:32.825Z,6.67
2018-01-31T06:47:32.890Z,6.82
2018-01-31T06:48:32.890Z,6.82
2018-01-31T06:49:32.850Z,6.84
2018-01-31T06:50:32.893Z,6.86
2018-01-31T06:51:32.829Z,6.84
2018-01-31T06:52:32.899Z,6.86
2018-01-31T06:53:32.900Z,6.86
2018-01-31T06:54:32.895Z,6.84
2018-01-31T06:55:32.829Z,6.84
2018-01-31T06:56:32.896Z,6.84
2018-01-31T06:57:32.832Z,6.81
2018-01-31T06:58:32.897Z,6.82
2018-01-31T06:59:32.828Z,6.79
2018-01-31T07:00:32.905Z,6.78
2018-01-31T07:01:32.867Z,6.78
2018-01-31T07:02:32.802Z,6.79
2018-01-31T07:03:32.782Z,6.78
2018-01-31T07:04:32.808Z,6.78
2018-01-31T07:05:32.890Z,6.77
2018-01-31T07:06:32.854Z,6.82
2018-01-31T07:07:32.810Z,6.82
2018-01-31T07:08:32.895Z,6.84
2018-01-31T07:09:32.896Z,6.82
2018-01-31T07:10:32.905Z,6.84
2018-01-31T07:11:32.907Z,6.84
2018-01-31T07:12:32.907Z,6.82
2018-01-31T07:13:32.858Z,6.82
2018-01-31T07:14:32.907Z,6.81
2018-01-31T07:15:32.839Z,6.81
2018-01-31T07:16:32.911Z,6.79
2018-01-31T07:17:32.839Z,6.79
2018-01-31T07:18:32.915Z,6.81
2018-01-31T07:19:32.913Z,6.84
2018-01-31T07:20:32.915Z,6.87
2018-01-31T07:21:32.866Z,6.89
2018-01-31T07:22:32.865Z,6.93
2018-01-31T07:23:32.865Z,6.95
2018-01-31T07:24:32.863Z,6.95
2018-01-31T07:25:32.822Z,6.95
2018-01-31T07:26:32.971Z,7.00
2018-01-31T07:27:32.829Z,7.02
2018-01-31T07:28:32.864Z,7.05
2018-01-31T07:29:32.879Z,7.08
2018-01-31T07:30:32.785Z,7.12
2018-01-31T07:31:32.902Z,7.19
2018-01-31T07:32:32.871Z,7.20
2018-01-31T07:33:32.938Z,7.22
2018-01-31T07:34:32.806Z,7.24
2018-01-31T07:35:32.904Z,7.27
2018-01-31T07:36:32.912Z,7.30
2018-01-31T07:37:32.892Z,7.31
2018-01-31T07:38:32.878Z,7.33
2018-01-31T07:39:32.912Z,7.37
2018-01-31T07:40:32.811Z,7.41
2018-01-31T07:41:32.929Z,7.44
2018-01-31T07:42:32.953Z,7.45
2018-01-31T07:43:32.924Z,7.44
2018-01-31T07:44:32.857Z,7.45
2018-01-31T07:45:32.930Z,7.48
2018-01-31T07:46:32.859Z,7.51
2018-01-31T07:47:32.932Z,7.58
2018-01-31T07:48:32.927Z,7.59
2018-01-31T07:49:32.857Z,7.59
2018-01-31T07:50:32.928Z,7.60
2018-01-31T07:51:32.855Z,7.60
2018-01-31T07:52:32.930Z,7.64
2018-01-31T07:53:32.860Z,7.65
2018-01-31T07:54:32.931Z,7.67
2018-01-31T07:55:32.858Z,7.68
2018-01-31T07:56:32.955Z,7.70
2018-01-31T07:57:32.932Z,7.74
2018-01-31T07:58:32.859Z,7.74
2018-01-31T07:59:32.934Z,7.76
2018-01-31T08:00:32.862Z,7.76
2018-01-31T08:01:32.940Z,7.78
2018-01-31T08:02:32.860Z,7.79
2018-01-31T08:03:32.935Z,7.79
2018-01-31T08:04:32.863Z,7.79
2018-01-31T08:05:32.939Z,7.81
2018-01-31T08:06:32.869Z,7.83
2018-01-31T08:07:32.944Z,7.87
2018-01-31T08:08:32.817Z,7.90
2018-01-31T08:09:32.940Z,7.93
2018-01-31T08:10:32.870Z,7.97
2018-01-31T08:11:32.766Z,7.98
2018-01-31T08:12:32.812Z,8.02
2018-01-31T08:13:32.877Z,8.06
2018-01-31T08:14:32.775Z,8.11
2018-01-31T08:15:32.838Z,8.13
2018-01-31T08:16:32.829Z,8.13
2018-01-31T08:17:32.821Z,8.15
2018-01-31T08:18:32.797Z,8.17
2018-01-31T08:19:32.780Z,8.20
2018-01-31T08:20:32.800Z,8.26
2018-01-31T08:21:32.877Z,8.28
2018-01-31T08:22:32.889Z,8.30
2018-01-31T08:23:32.950Z,8.30
2018-01-31T08:24:32.919Z,8.31
2018-01-31T08:25:32.952Z,8.34
2018-01-31T08:26:32.882Z,8.37
2018-01-31T08:27:32.954Z,8.37
2018-01-31T08:28:32.886Z,8.37
2018-01-31T08:29:32.957Z,8.38
2018-01-31T08:30:32.888Z,8.42
2018-01-31T08:31:32.957Z,8.43
2018-01-31T08:32:32.955Z,8.45
2018-01-31T08:33:32.887Z,8.46
2018-01-31T08:34:32.858Z,8.50
2018-01-31T08:35:32.956Z,8.56
2018-01-31T08:36:32.880Z,8.58
2018-01-31T08:37:32.881Z,8.60
2018-01-31T08:38:32.957Z,8.60
2018-01-31T08:39:32.991Z,8.60
2018-01-31T08:40:32.970Z,8.64
2018-01-31T08:41:32.896Z,8.69
2018-01-31T08:42:32.983Z,8.72
2018-01-31T08:43:32.893Z,8.74
2018-01-31T08:44:33.041Z,8.75
2018-01-31T08:45:32.962Z,8.76
2018-01-31T08:46:32.894Z,8.76
2018-01-31T08:47:32.963Z,8.75
2018-01-31T08:48:32.891Z,8.75
2018-01-31T08:49:32.846Z,8.76
2018-01-31T08:50:32.896Z,8.79
2018-01-31T08:51:32.877Z,8.79
2018-01-31T08:52:32.944Z,8.78
2018-01-31T08:53:32.893Z,8.78
2018-01-31T08:54:32.918Z,8.76
2018-01-31T08:55:32.945Z,8.79
2018-01-31T08:56:32.856Z,8.79
2018-01-31T08:57:32.912Z,8.79
2018-01-31T08:58:32.877Z,8.80
2018-01-31T08:59:32.846Z,8.80
2018-01-31T09:00:32.842Z,8.82
2018-01-31T09:01:32.892Z,8.85
2018-01-31T09:02:32.859Z,8.87
2018-01-31T09:03:32.897Z,8.90
2018-01-31T09:04:32.850Z,8.91
2018-01-31T09:05:32.938Z,8.93
2018-01-31T09:06:32.899Z,8.96
2018-01-31T09:07:32.879Z,8.97
2018-01-31T09:08:32.878Z,9.00
2018-01-31T09:09:33.009Z,9.02
2018-01-31T09:10:32.918Z,9.05
2018-01-31T09:11:32.904Z,9.09
2018-01-31T09:12:32.984Z,9.09
2018-01-31T09:13:32.913Z,9.11
2018-01-31T09:14:32.980Z,9.12
2018-01-31T09:15:32.979Z,9.15
2018-01-31T09:16:32.981Z,9.16
2018-01-31T09:17:32.915Z,9.16
2018-01-31T09:18:32.916Z,9.19
2018-01-31T09:19:32.982Z,9.22
2018-01-31T09:20:32.914Z,9.23
2018-01-31T09:21:32.984Z,9.25
2018-01-31T09:22:32.916Z,9.27
2018-01-31T09:23:32.984Z,9.27
2018-01-31T09:24:32.914Z,9.27
2018-01-31T09:25:32.986Z,9.27
2018-01-31T09:26:32.917Z,9.27
2018-01-31T09:27:32.988Z,9.27
2018-01-31T09:28:32.918Z,9.27
2018-01-31T09:29:32.919Z,9.28
2018-01-31T09:30:33.009Z,9.28
2018-01-31T09:31:32.923Z,9.27
2018-01-31T09:32:32.921Z,9.28
2018-01-31T09:33:32.991Z,9.28
2018-01-31T09:34:32.920Z,9.28
2018-01-31T09:35:32.990Z,9.27
2018-01-31T09:36:33.045Z,9.28
2018-01-31T09:37:32.994Z,9.31
2018-01-31T09:38:32.934Z,9.32
2018-01-31T09:39:32.995Z,9.34
2018-01-31T09:40:32.929Z,9.34
2018-01-31T09:41:32.983Z,9.34
2018-01-31T09:42:32.931Z,9.32
2018-01-31T09:43:32.927Z,9.32
2018-01-31T09:44:32.901Z,9.34
2018-01-31T09:45:32.989Z,9.34
2018-01-31T09:46:32.979Z,9.34
2018-01-31T09:47:32.985Z,9.36
2018-01-31T09:48:33.037Z,9.38
2018-01-31T09:49:32.926Z,9.39
2018-01-31T09:50:32.930Z,9.40
2018-01-31T09:51:33.002Z,9.42
2018-01-31T09:52:34.937Z,9.43
2018-01-31T09:53:33.066Z,9.43
2018-01-31T09:54:32.934Z,9.46
2018-01-31T09:55:33.006Z,9.47
2018-01-31T09:56:32.932Z,9.47
2018-01-31T09:57:33.006Z,9.47
2018-01-31T09:58:32.939Z,9.49
2018-01-31T09:59:33.010Z,9.49
2018-01-31T10:00:32.941Z,9.50
2018-01-31T10:01:33.009Z,9.50
2018-01-31T10:02:32.934Z,9.50
2018-01-31T10:03:33.012Z,9.50
2018-01-31T10:04:32.938Z,9.50
2018-01-31T10:05:33.010Z,9.51
2018-01-31T10:06:32.942Z,9.53
2018-01-31T10:07:33.011Z,9.55
2018-01-31T10:08:32.938Z,9.55
2018-01-31T10:09:33.013Z,9.57
2018-01-31T10:10:32.945Z,9.60
2018-01-31T10:11:33.014Z,9.61
2018-01-31T10:12:32.947Z,9.62
2018-01-31T10:13:33.029Z,9.65
2018-01-31T10:14:32.941Z,9.66
2018-01-31T10:15:33.016Z,9.71
2018-01-31T10:16:32.950Z,9.72
2018-01-31T10:17:33.076Z,9.73
2018-01-31T10:18:33.057Z,9.76
2018-01-31T10:19:32.948Z,9.78
2018-01-31T10:20:33.024Z,9.78
2018-01-31T10:21:33.023Z,9.82
2018-01-31T10:22:32.951Z,9.86
2018-01-31T10:23:33.027Z,9.86
2018-01-31T10:24:32.953Z,9.89
2018-01-31T10:25:32.904Z,9.91
2018-01-31T10:26:33.024Z,9.94
2018-01-31T10:27:33.026Z,9.95
2018-01-31T10:28:32.950Z,10.01
2018-01-31T10:29:33.026Z,10.04
2018-01-31T10:30:33.026Z,10.05
2018-01-31T10:31:32.954Z,10.06
2018-01-31T10:32:33.026Z,10.09
2018-01-31T10:33:32.952Z,10.11
2018-01-31T10:34:33.036Z,10.13
2018-01-31T10:35:32.973Z,10.14
2018-01-31T10:36:32.914Z,10.16
2018-01-31T10:37:32.955Z,10.16
2018-01-31T10:38:32.955Z,10.17
2018-01-31T10:39:33.034Z,10.20
2018-01-31T10:40:32.955Z,10.21
2018-01-31T10:41:33.032Z,10.23
2018-01-31T10:42:33.009Z,10.24
2018-01-31T10:43:33.045Z,10.25
2018-01-31T10:44:33.036Z,10.25
2018-01-31T10:45:33.005Z,10.27
2018-01-31T10:46:33.037Z,10.30
2018-01-31T10:47:33.036Z,10.30
2018-01-31T10:48:32.967Z,10.30
2018-01-31T10:49:33.040Z,10.30
2018-01-31T10:50:32.968Z,10.31
2018-01-31T10:51:33.040Z,10.28
2018-01-31T10:52:32.971Z,10.28
2018-01-31T10:53:33.040Z,10.31
2018-01-31T10:57:29.193Z,10.27
2018-01-31T10:57:33.002Z,10.27
2018-01-31T10:58:33.045Z,10.28
2018-01-31T10:59:33.016Z,10.27
2018-01-31T11:00:33.044Z,10.28
2018-01-31T11:01:32.899Z,10.31
2018-01-31T11:02:32.896Z,10.32
2018-01-31T11:03:32.900Z,10.35
2018-01-31T11:04:32.988Z,10.35
2018-01-31T11:05:32.905Z,10.36
2018-01-31T11:06:32.942Z,10.39
2018-01-31T11:07:32.944Z,10.41
2018-01-31T11:08:32.904Z,10.43
2018-01-31T11:09:32.989Z,10.41
2018-01-31T11:10:32.901Z,10.42
2018-01-31T11:11:32.975Z,10.45
2018-01-31T11:12:32.979Z,10.47
2018-01-31T11:13:33.017Z,10.49
2018-01-31T11:14:32.935Z,10.46
2018-01-31T11:15:32.974Z,10.42
2018-01-31T11:16:33.020Z,10.43
2018-01-31T11:17:33.042Z,10.41
2018-01-31T11:18:32.957Z,10.41
2018-01-31T11:19:33.048Z,10.43
2018-01-31T11:20:32.940Z,10.49
2018-01-31T11:21:32.937Z,10.47
2018-01-31T11:22:32.983Z,10.46
2018-01-31T11:23:32.998Z,10.46
2018-01-31T11:24:33.027Z,10.47
2018-01-31T11:25:33.001Z,10.49
2018-01-31T11:26:33.046Z,10.50
2018-01-31T11:27:33.004Z,10.53
2018-01-31T11:28:32.952Z,10.54
2018-01-31T11:29:32.939Z,10.53
2018-01-31T11:30:32.944Z,10.50
2018-01-31T11:31:32.998Z,10.53
2018-01-31T11:32:32.999Z,10.54
2018-01-31T11:33:33.066Z,10.50
2018-01-31T11:34:33.002Z,10.47
2018-01-31T11:35:33.066Z,10.42
2018-01-31T11:36:32.999Z,10.41
2018-01-31T11:37:33.068Z,10.36
2018-01-31T11:38:33.000Z,10.36
2018-01-31T11:39:33.072Z,10.32
2018-01-31T11:40:33.000Z,10.31
2018-01-31T11:41:33.070Z,10.32
2018-01-31T11:42:33.136Z,10.28
2018-01-31T11:43:33.072Z,10.23
2018-01-31T11:44:33.002Z,10.18
2018-01-31T11:45:33.072Z,10.17
2018-01-31T11:46:32.997Z,10.17
2018-01-31T11:47:33.073Z,10.16
2018-01-31T11:48:33.072Z,10.16
2018-01-31T11:49:33.004Z,10.16
2018-01-31T11:50:33.076Z,10.20
2018-01-31T11:51:33.075Z,10.18
2018-01-31T11:52:33.002Z,10.17
2018-01-31T11:53:33.077Z,10.17
2018-01-31T11:54:33.005Z,10.18
2018-01-31T11:55:33.078Z,10.20
2018-01-31T11:56:33.039Z,10.21
2018-01-31T11:57:33.080Z,10.20
2018-01-31T11:58:33.010Z,10.20
2018-01-31T11:59:33.081Z,10.18
2018-01-31T12:00:33.015Z,10.23
2018-01-31T12:01:33.080Z,10.21
2018-01-31T12:02:33.013Z,10.21
2018-01-31T12:03:33.083Z,10.23
2018-01-31T12:04:33.010Z,10.24
2018-01-31T12:05:33.085Z,10.25
2018-01-31T12:06:33.016Z,10.28
2018-01-31T12:07:33.082Z,10.27
2018-01-31T12:08:33.043Z,10.25
2018-01-31T12:09:33.085Z,10.27
2018-01-31T12:10:33.060Z,10.27
2018-01-31T12:11:33.084Z,10.25
2018-01-31T12:12:33.025Z,10.24
2018-01-31T12:13:33.124Z,10.23
2018-01-31T12:14:33.030Z,10.21
2018-01-31T12:15:33.091Z,10.23
2018-01-31T12:16:33.048Z,10.17
2018-01-31T12:17:33.091Z,10.17
2018-01-31T12:18:33.244Z,10.16
2018-01-31T12:19:33.024Z,10.14
2018-01-31T12:20:33.091Z,10.11
2018-01-31T12:21:33.025Z,10.13
2018-01-31T12:22:33.021Z,10.13
2018-01-31T12:23:33.127Z,10.06
2018-01-31T12:24:33.025Z,10.04
2018-01-31T12:25:33.098Z,10.02
2018-01-31T12:26:33.027Z,10.02
2018-01-31T12:27:33.103Z,9.98
2018-01-31T12:28:33.024Z,9.97
2018-01-31T12:29:33.096Z,9.94
2018-01-31T12:30:33.036Z,9.93
2018-01-31T12:31:33.100Z,9.91
2018-01-31T12:32:33.098Z,9.90
2018-01-31T12:33:33.034Z,9.89
2018-01-31T12:34:33.117Z,9.87
2018-01-31T12:35:33.101Z,9.87
2018-01-31T12:36:33.040Z,9.86
2018-01-31T12:37:33.105Z,9.84
2018-01-31T12:38:33.034Z,9.82
2018-01-31T12:39:33.106Z,9.80
2018-01-31T12:40:33.080Z,9.78
2018-01-31T12:41:33.134Z,9.73
2018-01-31T12:42:33.107Z,9.71
2018-01-31T12:43:33.007Z,9.68
2018-01-31T12:44:33.029Z,9.65
2018-01-31T12:45:33.093Z,9.61
2018-01-31T12:46:33.099Z,9.60
2018-01-31T12:47:33.105Z,9.58
2018-01-31T12:48:32.990Z,9.55
2018-01-31T12:49:33.107Z,9.54
2018-01-31T12:50:32.991Z,9.54
2018-01-31T12:51:33.015Z,9.51
2018-01-31T12:52:33.046Z,9.53
2018-01-31T12:53:33.113Z,9.54
2018-01-31T12:54:33.041Z,9.54
2018-01-31T12:55:33.112Z,9.54
2018-01-31T12:56:33.046Z,9.54
2018-01-31T12:57:33.113Z,9.55
2018-01-31T12:58:33.043Z,9.54
2018-01-31T12:59:33.115Z,9.54
2018-01-31T13:00:33.047Z,9.55
2018-01-31T13:01:33.119Z,9.55
2018-01-31T13:02:33.048Z,9.57
2018-01-31T13:03:33.118Z,9.58
2018-01-31T13:04:33.050Z,9.60
2018-01-31T13:05:33.120Z,9.61
2018-01-31T13:06:33.051Z,9.61
2018-01-31T13:07:33.121Z,9.61
2018-01-31T13:08:33.053Z,9.61
2018-01-31T13:09:33.123Z,9.60
2018-01-31T13:10:33.055Z,9.60
2018-01-31T13:11:33.123Z,9.60
2018-01-31T13:12:33.051Z,9.57
2018-01-31T13:13:33.127Z,9.57
2018-01-31T13:14:33.053Z,9.55
2018-01-31T13:15:33.124Z,9.55
2018-01-31T13:16:33.054Z,9.51
2018-01-31T13:17:33.126Z,9.50
2018-01-31T13:18:33.050Z,9.50
2018-01-31T13:19:33.130Z,9.49
2018-01-31T13:20:33.129Z,9.49
2018-01-31T13:21:33.129Z,9.47
2018-01-31T13:22:33.086Z,9.49
2018-01-31T13:23:33.059Z,9.44
2018-01-31T13:24:33.022Z,9.43
2018-01-31T13:25:33.021Z,9.42
2018-01-31T13:26:33.082Z,9.40
2018-01-31T13:27:33.139Z,9.39
2018-01-31T13:28:33.093Z,9.38
2018-01-31T13:29:33.084Z,9.39
2018-01-31T13:30:33.081Z,9.34
2018-01-31T13:31:33.081Z,9.36
2018-01-31T13:32:33.138Z,9.36
2018-01-31T13:33:33.070Z,9.31
2018-01-31T13:34:33.141Z,9.28
2018-01-31T13:35:33.069Z,9.27
2018-01-31T13:36:33.137Z,9.22
2018-01-31T13:37:33.140Z,9.19
2018-01-31T13:38:33.073Z,9.18
2018-01-31T13:39:33.073Z,9.12
2018-01-31T13:40:33.140Z,9.11
2018-01-31T13:41:33.077Z,9.08
2018-01-31T13:42:33.071Z,9.08
2018-01-31T13:43:33.130Z,9.05
2018-01-31T13:44:33.136Z,9.04
2018-01-31T13:45:33.054Z,9.04
2018-01-31T13:46:33.106Z,9.04
2018-01-31T13:47:33.112Z,9.02
2018-01-31T13:48:33.090Z,9.02
2018-01-31T13:49:33.025Z,9.04
2018-01-31T13:50:33.034Z,9.07
2018-01-31T13:51:33.097Z,9.08
2018-01-31T13:52:33.080Z,9.11
2018-01-31T13:53:33.149Z,9.12
2018-01-31T13:54:33.128Z,9.12
2018-01-31T13:55:33.151Z,9.12
2018-01-31T13:56:33.084Z,9.12
2018-01-31T13:57:33.151Z,9.13
2018-01-31T13:58:33.077Z,9.16
2018-01-31T13:59:33.152Z,9.18
2018-01-31T14:00:33.081Z,9.20
2018-01-31T14:01:33.154Z,9.19
2018-01-31T14:02:33.086Z,9.19
2018-01-31T14:03:33.084Z,9.19
2018-01-31T14:04:33.089Z,9.20
2018-01-31T14:05:33.159Z,9.23
2018-01-31T14:06:33.083Z,9.23
2018-01-31T14:07:33.089Z,9.25
2018-01-31T14:08:33.164Z,9.25
2018-01-31T14:09:33.093Z,9.25
2018-01-31T14:10:33.159Z,9.23
2018-01-31T14:11:33.129Z,9.23
2018-01-31T14:12:33.085Z,9.23
2018-01-31T14:13:33.165Z,9.22
2018-01-31T14:14:33.092Z,9.20
2018-01-31T14:15:33.163Z,9.20
2018-01-31T14:16:33.163Z,9.22
2018-01-31T14:17:33.094Z,9.23
2018-01-31T14:18:33.161Z,9.23
2018-01-31T14:19:33.191Z,9.28
2018-01-31T14:20:33.092Z,9.30
2018-01-31T14:21:33.167Z,9.31
2018-01-31T14:22:33.135Z,9.34
2018-01-31T14:23:33.123Z,9.36
2018-01-31T14:24:33.078Z,9.34
2018-01-31T14:25:33.070Z,9.38
2018-01-31T14:26:33.047Z,9.40
2018-01-31T14:27:33.051Z,9.39
2018-01-31T14:28:33.074Z,9.40
2018-01-31T14:29:33.073Z,9.40
2018-01-31T14:30:33.174Z,9.40
2018-01-31T14:31:33.094Z,9.39
2018-01-31T14:32:33.173Z,9.40
2018-01-31T14:33:33.100Z,9.40
2018-01-31T14:34:33.176Z,9.42
2018-01-31T14:35:33.098Z,9.43
2018-01-31T14:36:33.175Z,9.42
2018-01-31T14:37:33.102Z,9.42
2018-01-31T14:38:33.105Z,9.40
2018-01-31T14:39:33.112Z,9.40
2018-01-31T14:40:33.178Z,9.42
2018-01-31T14:41:33.110Z,9.43
2018-01-31T14:42:33.178Z,9.42
2018-01-31T14:43:33.108Z,9.40
2018-01-31T14:44:33.110Z,9.40
2018-01-31T14:45:33.111Z,9.42
2018-01-31T14:46:33.182Z,9.42
2018-01-31T14:47:33.155Z,9.42
2018-01-31T14:48:33.183Z,9.42
2018-01-31T14:49:33.117Z,9.42
2018-01-31T14:50:33.120Z,9.43
2018-01-31T14:51:33.184Z,9.42
2018-01-31T14:52:33.151Z,9.43
2018-01-31T14:53:33.065Z,9.42
2018-01-31T14:54:33.128Z,9.40
2018-01-31T14:55:33.090Z,9.42
2018-01-31T14:56:33.112Z,9.42
2018-01-31T14:57:33.208Z,9.42
2018-01-31T14:58:33.136Z,9.40
2018-01-31T14:59:33.114Z,9.39
2018-01-31T15:00:33.075Z,9.38
2018-01-31T15:01:33.073Z,9.38
2018-01-31T15:02:33.201Z,9.36
2018-01-31T15:03:33.123Z,9.38
2018-01-31T15:04:33.193Z,9.36
2018-01-31T15:05:33.121Z,9.34
2018-01-31T15:06:33.193Z,9.34
2018-01-31T15:07:33.196Z,9.32